Time;durP1;ratioP1;P1;durP2;ratioP2;P2;SDS_P1;SDS_P2;PMS_P1;PMS_P2;Temp;Humidity;BMP_temperature;BMP_pressure;BME280_temperature;BME280_humidity;BME280_pressure;Samples;Min_cycle;Max_cycle;Signal;HPM_P1;HPM_P2
2021/08/07 00:00:25;;;;;;;2.13;1.70;;;15.90;99.90;;;;;;5102781;28;20212;-45
2021/08/07 00:02:51;;;;;;;2.13;1.80;;;15.80;99.90;;;;;;5115731;28;20199;-44
2021/08/07 00:05:16;;;;;;;3.77;2.10;;;15.80;99.90;;;;;;5119713;28;20436;-44
2021/08/07 00:07:42;;;;;;;3.13;2.50;;;15.80;99.90;;;;;;5102510;28;20471;-44
2021/08/07 00:10:08;;;;;;;2.53;2.10;;;15.80;99.90;;;;;;5099587;28;20184;-44
2021/08/07 00:12:35;;;;;;;2.23;1.63;;;15.80;99.90;;;;;;5119488;28;20688;-43
2021/08/07 00:15:01;;;;;;;4.00;2.10;;;15.80;99.90;;;;;;5113408;28;20468;-44
2021/08/07 00:17:27;;;;;;;3.33;2.40;;;15.80;99.90;;;;;;5108145;28;20473;-44
2021/08/07 00:19:53;;;;;;;4.23;2.73;;;15.80;99.90;;;;;;5119634;28;20180;-44
2021/08/07 00:22:18;;;;;;;2.60;2.33;;;15.80;99.90;;;;;;5119417;28;20236;-44
2021/08/07 00:24:44;;;;;;;4.57;2.37;;;15.80;99.90;;;;;;5119712;28;20514;-44
2021/08/07 00:27:10;;;;;;;4.70;2.23;;;15.80;99.90;;;;;;5118733;28;20187;-44
2021/08/07 00:29:36;;;;;;;4.93;2.30;;;15.90;99.90;;;;;;5119560;28;20418;-44
2021/08/07 00:32:03;;;;;;;3.63;2.00;;;15.90;99.90;;;;;;5110283;28;20252;-44
2021/08/07 00:34:28;;;;;;;2.70;2.37;;;15.90;99.90;;;;;;5101143;28;20835;-45
2021/08/07 00:36:54;;;;;;;3.67;2.33;;;15.90;99.90;;;;;;5101471;28;20444;-44
2021/08/07 00:39:20;;;;;;;3.70;2.67;;;15.90;99.90;;;;;;5106522;28;20198;-43
2021/08/07 00:41:45;;;;;;;3.40;2.20;;;15.90;99.90;;;;;;5115173;28;20601;-44
2021/08/07 00:44:11;;;;;;;2.90;2.10;;;15.90;99.90;;;;;;5107911;28;20421;-44
2021/08/07 00:46:37;;;;;;;3.10;2.33;;;15.90;99.90;;;;;;5102630;28;20180;-44
2021/08/07 00:49:04;;;;;;;5.07;2.73;;;15.90;99.90;;;;;;5079891;28;20173;-44
2021/08/07 00:51:33;;;;;;;3.60;2.37;;;15.90;99.90;;;;;;5097870;28;20181;-44
2021/08/07 00:53:59;;;;;;;4.27;2.70;;;15.80;99.90;;;;;;5079632;28;20407;-44
2021/08/07 00:56:25;;;;;;;2.90;2.40;;;15.80;99.90;;;;;;5097247;28;20513;-44
2021/08/07 00:58:51;;;;;;;3.93;2.77;;;15.80;99.90;;;;;;5097602;28;20537;-44
2021/08/07 01:01:17;;;;;;;3.53;2.17;;;15.80;99.90;;;;;;5100128;28;20211;-44
2021/08/07 01:03:47;;;;;;;4.30;2.93;;;15.90;99.90;;;;;;5100374;28;20406;-45
2021/08/07 01:06:37;;;;;;;3.37;2.63;;;15.90;99.90;;;;;;5099689;28;20741;-44
2021/08/07 01:09:03;;;;;;;4.40;2.83;;;15.90;99.90;;;;;;5118139;28;20402;-44
2021/08/07 01:12:17;;;;;;;3.27;2.40;;;15.90;99.90;;;;;;5117951;28;20425;-45
2021/08/07 01:14:44;;;;;;;3.53;2.57;;;16.00;99.90;;;;;;4996103;28;20183;-44
2021/08/07 01:17:12;;;;;;;6.33;2.40;;;16.00;99.90;;;;;;5013378;28;20448;-45
2021/08/07 01:20:04;;;;;;;2.63;2.23;;;16.00;99.90;;;;;;5045695;28;20548;-45
2021/08/07 01:22:47;;;;;;;4.30;2.60;;;15.90;99.90;;;;;;5096597;28;20426;-44
2021/08/07 01:25:17;;;;;;;3.90;2.50;;;15.90;99.90;;;;;;5097420;28;20705;-44
2021/08/07 01:27:43;;;;;;;3.77;2.10;;;15.90;99.90;;;;;;5096890;28;20824;-44
2021/08/07 01:30:11;;;;;;;3.50;2.37;;;15.80;99.90;;;;;;5097697;28;20438;-45
2021/08/07 01:32:37;;;;;;;3.10;2.47;;;15.80;99.90;;;;;;5097502;28;20688;-44
2021/08/07 01:35:05;;;;;;;2.90;2.50;;;15.80;99.90;;;;;;5097265;28;20505;-45
2021/08/07 01:37:31;;;;;;;4.77;2.67;;;15.80;99.90;;;;;;5096500;28;20449;-44
2021/08/07 01:39:57;;;;;;;2.77;2.40;;;15.80;99.90;;;;;;5078971;28;20402;-44
2021/08/07 01:42:24;;;;;;;4.50;3.07;;;15.80;99.90;;;;;;5096875;28;20886;-44
2021/08/07 01:44:50;;;;;;;2.70;2.17;;;15.80;99.90;;;;;;5097099;28;20501;-44
2021/08/07 01:47:28;;;;;;;4.70;2.70;;;15.80;99.90;;;;;;5096823;28;20529;-44
2021/08/07 01:50:03;;;;;;;4.03;2.43;;;15.70;99.90;;;;;;5079039;28;20262;-44
2021/08/07 01:52:33;;;;;;;7.70;3.00;;;15.80;99.90;;;;;;5079172;28;20495;-44
2021/08/07 01:55:08;;;;;;;3.67;2.50;;;15.80;99.90;;;;;;5079378;28;20417;-44
2021/08/07 01:57:40;;;;;;;5.00;2.90;;;15.90;99.90;;;;;;5097579;28;20425;-45
2021/08/07 02:00:06;;;;;;;3.17;2.20;;;15.90;99.90;;;;;;5079463;28;20509;-44
2021/08/07 02:02:32;;;;;;;2.97;2.50;;;15.90;99.90;;;;;;5083588;28;20840;-42
2021/08/07 02:04:59;;;;;;;4.77;3.57;;;15.90;99.90;;;;;;5083163;28;20418;-44
2021/08/07 02:07:26;;;;;;;3.20;2.70;;;15.90;99.90;;;;;;5083159;28;20179;-45
2021/08/07 02:09:52;;;;;;;3.57;2.37;;;15.90;99.90;;;;;;5066720;28;20415;-44
2021/08/07 02:12:18;;;;;;;3.27;2.70;;;15.90;99.90;;;;;;5083183;28;20836;-45
2021/08/07 02:14:44;;;;;;;2.70;2.50;;;16.00;99.90;;;;;;5101433;28;20196;-42
2021/08/07 02:17:10;;;;;;;3.10;2.80;;;16.00;99.90;;;;;;5083094;28;20427;-42
2021/08/07 02:19:37;;;;;;;2.80;2.53;;;16.00;99.90;;;;;;5083453;28;20658;-42
2021/08/07 02:22:03;;;;;;;5.03;2.60;;;16.00;99.90;;;;;;5100683;28;20219;-42
2021/08/07 02:24:29;;;;;;;2.87;2.60;;;16.00;99.90;;;;;;5100584;28;20764;-42
2021/08/07 02:26:55;;;;;;;3.40;2.40;;;16.00;99.90;;;;;;5082866;28;20439;-42
2021/08/07 02:29:22;;;;;;;4.37;2.50;;;16.00;99.90;;;;;;5082986;28;20169;-42
2021/08/07 02:31:48;;;;;;;4.30;2.67;;;16.00;99.90;;;;;;5083072;28;20871;-44
2021/08/07 02:34:14;;;;;;;3.87;2.63;;;16.00;99.90;;;;;;5083183;28;20398;-45
2021/08/07 02:36:41;;;;;;;4.30;2.30;;;16.00;99.90;;;;;;5082706;28;20506;-44
2021/08/07 02:39:07;;;;;;;4.40;2.40;;;16.00;99.90;;;;;;5118975;28;20199;-45
2021/08/07 02:41:33;;;;;;;4.13;2.30;;;15.90;99.90;;;;;;5120795;28;20457;-42
2021/08/07 02:43:59;;;;;;;4.63;2.80;;;15.80;99.90;;;;;;5103281;28;20191;-42
2021/08/07 02:46:26;;;;;;;2.73;2.40;;;15.70;99.90;;;;;;5102911;28;20421;-42
2021/08/07 02:48:52;;;;;;;3.13;2.83;;;15.60;99.90;;;;;;5120022;28;20653;-42
2021/08/07 02:51:19;;;;;;;2.77;2.50;;;15.60;99.90;;;;;;5120417;28;20421;-42
2021/08/07 02:53:45;;;;;;;4.30;2.87;;;15.60;99.90;;;;;;5120675;28;20437;-42
2021/08/07 02:56:11;;;;;;;3.30;2.47;;;15.60;99.90;;;;;;5120467;28;20457;-42
2021/08/07 02:58:37;;;;;;;2.50;2.10;;;15.60;99.90;;;;;;5102148;28;20210;-42
2021/08/07 03:01:02;;;;;;;4.00;2.80;;;15.60;99.90;;;;;;5101416;28;20788;-42
2021/08/07 03:03:28;;;;;;;2.53;2.33;;;15.70;99.90;;;;;;5119672;28;20170;-42
2021/08/07 03:05:54;;;;;;;3.77;2.47;;;15.60;99.90;;;;;;5120062;28;20179;-42
2021/08/07 03:08:20;;;;;;;2.83;2.33;;;15.60;99.90;;;;;;5120408;28;20545;-42
2021/08/07 03:10:45;;;;;;;2.93;2.40;;;15.60;99.90;;;;;;5119857;28;20410;-44
2021/08/07 03:13:11;;;;;;;3.30;2.33;;;15.60;99.90;;;;;;5118984;28;20290;-42
2021/08/07 03:15:37;;;;;;;4.23;2.93;;;15.60;99.90;;;;;;5120675;28;20415;-42
2021/08/07 03:18:03;;;;;;;6.53;3.27;;;15.60;99.90;;;;;;5120536;28;20195;-42
2021/08/07 03:20:32;;;;;;;4.00;2.60;;;15.50;99.90;;;;;;5102270;28;20889;-43
2021/08/07 03:22:59;;;;;;;3.13;2.77;;;15.50;99.90;;;;;;5113422;28;20448;-42
2021/08/07 03:25:25;;;;;;;4.50;2.80;;;15.50;99.90;;;;;;5105156;28;20430;-42
2021/08/07 03:27:51;;;;;;;3.30;2.27;;;15.50;99.90;;;;;;5099967;28;20665;-42
2021/08/07 03:30:17;;;;;;;3.97;2.73;;;15.50;99.90;;;;;;5100050;28;20406;-42
2021/08/07 03:32:43;;;;;;;5.97;2.93;;;15.50;99.90;;;;;;5099813;28;20492;-42
2021/08/07 03:35:09;;;;;;;3.87;2.90;;;15.50;99.90;;;;;;5099463;28;20173;-42
2021/08/07 03:37:35;;;;;;;4.00;2.60;;;15.40;99.90;;;;;;5099900;28;20694;-42
2021/08/07 03:40:00;;;;;;;4.53;2.57;;;15.30;99.90;;;;;;5099166;28;20434;-43
2021/08/07 03:42:26;;;;;;;2.93;2.63;;;15.30;99.90;;;;;;5099531;28;20180;-41
2021/08/07 03:44:52;;;;;;;3.67;2.70;;;15.30;99.90;;;;;;5099750;28;20233;-43
2021/08/07 03:47:18;;;;;;;4.90;3.03;;;15.30;99.90;;;;;;5099278;28;20184;-43
2021/08/07 03:49:43;;;;;;;3.53;2.67;;;15.30;99.90;;;;;;5099478;28;20501;-43
2021/08/07 03:52:09;;;;;;;3.50;2.93;;;15.30;99.90;;;;;;5091285;28;20180;-42
2021/08/07 03:54:35;;;;;;;3.60;2.60;;;15.30;99.90;;;;;;5099511;28;20180;-43
2021/08/07 03:57:01;;;;;;;3.17;2.37;;;15.30;99.90;;;;;;5099478;28;20181;-43
2021/08/07 03:59:26;;;;;;;4.80;3.77;;;15.30;99.90;;;;;;5099203;28;20411;-43
2021/08/07 04:01:52;;;;;;;3.07;2.70;;;15.30;99.90;;;;;;5090491;28;20209;-43
2021/08/07 04:04:18;;;;;;;2.67;2.47;;;15.30;99.90;;;;;;5099220;28;20565;-44
2021/08/07 04:06:44;;;;;;;3.70;2.70;;;15.30;99.90;;;;;;5099157;28;20301;-44
2021/08/07 04:09:09;;;;;;;2.93;2.50;;;15.40;99.90;;;;;;5080776;28;20812;-44
2021/08/07 04:11:35;;;;;;;3.43;2.47;;;15.30;99.90;;;;;;5098805;28;20184;-44
2021/08/07 04:14:01;;;;;;;4.13;2.33;;;15.40;99.90;;;;;;5098706;28;20173;-46
2021/08/07 04:16:28;;;;;;;2.77;2.40;;;15.30;99.90;;;;;;5098081;28;20188;-44
2021/08/07 04:18:54;;;;;;;2.47;2.10;;;15.30;99.90;;;;;;5098482;28;20434;-44
2021/08/07 04:21:20;;;;;;;3.00;2.47;;;15.30;99.90;;;;;;5097384;28;20986;-44
2021/08/07 04:23:45;;;;;;;6.10;2.87;;;15.30;99.90;;;;;;5096039;28;20228;-44
2021/08/07 04:26:11;;;;;;;2.87;2.53;;;15.40;99.90;;;;;;5097989;28;20180;-44
2021/08/07 04:28:37;;;;;;;2.90;2.60;;;15.40;99.90;;;;;;5100573;28;20183;-44
2021/08/07 04:31:05;;;;;;;3.73;2.50;;;15.40;99.90;;;;;;5106569;28;20257;-45
2021/08/07 04:33:33;;;;;;;4.23;2.77;;;15.40;99.90;;;;;;5098926;28;20225;-45
2021/08/07 04:36:03;;;;;;;2.60;2.23;;;15.50;99.90;;;;;;5109506;28;20413;-45
2021/08/07 04:38:28;;;;;;;6.00;3.10;;;15.50;99.90;;;;;;5113210;28;20417;-45
2021/08/07 04:40:54;;;;;;;3.23;2.37;;;15.60;99.90;;;;;;5107888;28;20485;-45
2021/08/07 04:43:20;;;;;;;3.47;3.13;;;15.60;99.90;;;;;;5099102;28;20199;-45
2021/08/07 04:45:46;;;;;;;3.80;2.70;;;15.60;99.90;;;;;;5097892;28;20823;-45
2021/08/07 04:48:11;;;;;;;7.93;2.60;;;15.60;99.90;;;;;;5114612;28;20186;-45
2021/08/07 04:50:37;;;;;;;3.50;2.07;;;15.60;99.90;;;;;;5117646;28;20638;-45
2021/08/07 04:53:04;;;;;;;2.83;2.07;;;15.70;99.90;;;;;;5111518;28;20184;-45
2021/08/07 04:55:30;;;;;;;3.40;2.20;;;15.60;99.90;;;;;;5093475;28;20664;-45
2021/08/07 04:57:56;;;;;;;2.57;2.30;;;15.70;99.90;;;;;;5116165;28;20450;-45
2021/08/07 05:00:23;;;;;;;3.47;2.63;;;15.80;99.90;;;;;;5117590;28;20538;-46
2021/08/07 05:02:49;;;;;;;3.00;2.50;;;15.90;99.90;;;;;;5117787;28;20418;-45
2021/08/07 05:05:16;;;;;;;2.50;2.20;;;15.90;99.90;;;;;;5109843;28;20525;-44
2021/08/07 05:07:42;;;;;;;2.63;2.17;;;15.90;99.90;;;;;;5101320;28;20723;-44
2021/08/07 05:10:09;;;;;;;3.00;2.30;;;15.90;99.90;;;;;;5114778;28;20437;-44
2021/08/07 05:12:35;;;;;;;3.20;2.53;;;16.00;99.90;;;;;;5104076;28;20533;-44
2021/08/07 05:15:01;;;;;;;3.73;2.60;;;16.00;99.90;;;;;;5110222;28;20505;-45
2021/08/07 05:17:27;;;;;;;3.63;2.40;;;16.10;99.90;;;;;;5108886;28;20207;-44
2021/08/07 05:19:54;;;;;;;3.13;2.83;;;16.10;99.90;;;;;;5113519;28;20437;-45
2021/08/07 05:22:21;;;;;;;3.90;2.60;;;16.20;99.90;;;;;;5104622;28;20434;-45
2021/08/07 05:24:47;;;;;;;3.27;2.60;;;16.30;99.90;;;;;;5118143;28;20520;-45
2021/08/07 05:27:12;;;;;;;3.70;2.80;;;16.40;99.90;;;;;;5099894;28;20761;-45
2021/08/07 05:29:38;;;;;;;4.30;2.50;;;16.40;99.90;;;;;;5117856;28;20409;-45
2021/08/07 05:32:04;;;;;;;2.53;1.93;;;16.50;99.90;;;;;;5105545;28;20192;-45
2021/08/07 05:34:30;;;;;;;6.50;2.90;;;16.60;99.90;;;;;;5111029;28;20828;-45
2021/08/07 05:36:56;;;;;;;5.50;2.50;;;16.70;99.90;;;;;;5112825;28;20528;-45
2021/08/07 05:39:22;;;;;;;3.10;2.53;;;16.90;99.90;;;;;;5091524;28;20180;-45
2021/08/07 05:41:48;;;;;;;3.00;2.20;;;17.00;99.90;;;;;;5092063;28;20925;-45
2021/08/07 05:44:14;;;;;;;5.13;2.00;;;17.10;99.00;;;;;;5089570;28;20422;-44
2021/08/07 05:46:40;;;;;;;4.07;2.07;;;17.20;98.70;;;;;;5110842;28;20280;-45
2021/08/07 05:49:06;;;;;;;3.07;2.27;;;17.30;98.60;;;;;;5093597;28;20183;-46
2021/08/07 05:51:34;;;;;;;3.97;2.27;;;17.40;98.10;;;;;;5111399;28;20449;-45
2021/08/07 05:54:01;;;;;;;2.67;2.27;;;17.60;96.90;;;;;;5091717;28;20432;-45
2021/08/07 05:56:27;;;;;;;4.10;2.27;;;17.80;97.10;;;;;;5113992;28;20641;-44
2021/08/07 05:58:52;;;;;;;2.33;2.00;;;17.90;96.80;;;;;;5116440;28;20497;-45
2021/08/07 06:01:18;;;;;;;2.60;1.87;;;18.00;96.50;;;;;;5113171;28;20311;-45
2021/08/07 06:03:44;;;;;;;5.00;2.23;;;18.00;96.60;;;;;;5115249;28;20418;-45
2021/08/07 06:06:10;;;;;;;3.63;2.03;;;18.10;96.50;;;;;;5096053;28;20219;-45
2021/08/07 06:08:36;;;;;;;5.27;2.10;;;18.20;96.40;;;;;;5114533;28;20263;-45
2021/08/07 06:11:01;;;;;;;4.90;2.53;;;18.30;96.40;;;;;;5116797;28;20567;-45
2021/08/07 06:13:27;;;;;;;3.70;2.33;;;18.40;96.00;;;;;;5117722;28;20179;-46
2021/08/07 06:15:53;;;;;;;2.93;1.73;;;18.40;96.50;;;;;;5106393;28;20274;-45
2021/08/07 06:18:19;;;;;;;2.63;2.30;;;18.40;95.80;;;;;;5091156;28;20867;-45
2021/08/07 06:20:45;;;;;;;2.03;1.50;;;18.40;96.00;;;;;;5110856;28;20480;-45
2021/08/07 06:23:12;;;;;;;2.50;2.10;;;18.40;96.10;;;;;;5105734;28;20897;-46
2021/08/07 06:25:38;;;;;;;3.03;2.00;;;18.40;96.10;;;;;;5088701;28;20429;-46
2021/08/07 06:28:05;;;;;;;3.37;1.90;;;18.50;96.20;;;;;;5107400;28;20532;-45
2021/08/07 06:30:31;;;;;;;4.03;1.97;;;18.60;96.10;;;;;;5113765;28;20528;-46
2021/08/07 06:32:57;;;;;;;3.37;2.00;;;18.90;96.10;;;;;;5089585;28;20482;-45
2021/08/07 06:35:23;;;;;;;3.27;2.30;;;19.20;95.50;;;;;;5088881;28;20510;-45
2021/08/07 06:37:49;;;;;;;3.37;2.10;;;19.60;94.50;;;;;;5114389;28;20836;-45
2021/08/07 06:40:16;;;;;;;3.40;2.17;;;19.80;94.10;;;;;;5110144;28;20185;-46
2021/08/07 06:42:42;;;;;;;3.40;1.90;;;20.00;93.80;;;;;;5107908;28;20184;-46
2021/08/07 06:45:09;;;;;;;7.20;2.10;;;20.10;93.80;;;;;;5113253;28;20509;-46
2021/08/07 06:47:34;;;;;;;2.10;1.90;;;20.00;93.30;;;;;;5116546;28;20457;-46
2021/08/07 06:50:00;;;;;;;2.97;1.80;;;20.00;93.70;;;;;;5105396;28;20490;-46
2021/08/07 06:52:26;;;;;;;2.17;1.60;;;20.00;93.40;;;;;;5112816;28;20473;-46
2021/08/07 06:54:51;;;;;;;3.47;1.80;;;20.00;93.60;;;;;;5091908;28;20262;-46
2021/08/07 06:57:19;;;;;;;3.87;2.10;;;20.10;93.50;;;;;;5118399;28;20843;-46
2021/08/07 06:59:46;;;;;;;3.80;2.13;;;20.50;93.40;;;;;;5119356;28;20551;-46
2021/08/07 07:02:12;;;;;;;3.43;1.73;;;20.90;92.70;;;;;;5106454;28;20618;-45
2021/08/07 07:04:38;;;;;;;3.70;2.13;;;21.10;92.30;;;;;;5118648;28;20421;-45
2021/08/07 07:07:04;;;;;;;2.90;1.77;;;21.10;92.00;;;;;;5117952;28;20435;-45
2021/08/07 07:09:31;;;;;;;2.97;2.10;;;21.30;91.50;;;;;;5119384;28;20476;-45
2021/08/07 07:11:56;;;;;;;4.13;2.30;;;21.30;91.60;;;;;;5119689;28;20464;-45
2021/08/07 07:14:22;;;;;;;5.13;1.93;;;21.50;91.90;;;;;;5119204;28;20410;-45
2021/08/07 07:16:48;;;;;;;2.83;1.90;;;21.70;91.70;;;;;;5112533;28;20924;-45
2021/08/07 07:19:14;;;;;;;3.87;2.00;;;21.90;91.40;;;;;;5098768;28;20478;-45
2021/08/07 07:21:41;;;;;;;2.87;2.33;;;22.00;91.60;;;;;;5097739;28;20577;-45
2021/08/07 07:24:06;;;;;;;3.93;1.80;;;22.00;91.70;;;;;;5098345;28;20508;-45
2021/08/07 07:26:32;;;;;;;4.70;2.30;;;21.90;91.50;;;;;;5098582;28;20438;-45
2021/08/07 07:28:58;;;;;;;2.93;1.80;;;21.60;91.80;;;;;;5099563;28;20180;-45
2021/08/07 07:31:25;;;;;;;2.80;1.63;;;21.40;92.00;;;;;;5099292;28;20437;-45
2021/08/07 07:33:51;;;;;;;2.60;1.97;;;21.20;92.20;;;;;;5099375;28;20199;-45
2021/08/07 07:36:17;;;;;;;3.70;2.07;;;21.20;92.30;;;;;;5099717;28;20445;-45
2021/08/07 07:38:43;;;;;;;6.57;2.07;;;21.20;92.50;;;;;;5081710;28;20430;-45
2021/08/07 07:41:10;;;;;;;2.30;1.70;;;21.30;92.50;;;;;;5099564;28;20208;-45
2021/08/07 07:43:36;;;;;;;4.00;2.07;;;21.70;92.10;;;;;;5099263;28;20478;-45
2021/08/07 07:46:02;;;;;;;4.50;1.90;;;22.00;91.60;;;;;;5098700;28;20414;-46
2021/08/07 07:48:28;;;;;;;2.47;1.90;;;22.30;91.30;;;;;;5080149;28;20187;-46
2021/08/07 07:50:54;;;;;;;5.60;2.20;;;22.60;91.10;;;;;;5098418;28;20731;-46
2021/08/07 07:53:19;;;;;;;2.37;2.00;;;22.80;91.00;;;;;;5098391;28;20177;-46
2021/08/07 07:55:45;;;;;;;2.90;1.83;;;23.30;90.60;;;;;;5098789;28;20421;-46
2021/08/07 07:58:11;;;;;;;4.00;2.40;;;23.70;89.30;;;;;;5097755;28;20182;-46
2021/08/07 08:00:37;;;;;;;3.77;1.70;;;23.90;88.70;;;;;;5063471;28;20270;-46
2021/08/07 08:03:02;;;;;;;3.50;1.60;;;23.80;84.80;;;;;;5097226;28;20507;-46
2021/08/07 08:05:28;;;;;;;1.80;1.50;;;23.80;85.70;;;;;;5079040;28;20444;-46
2021/08/07 08:07:54;;;;;;;3.13;1.93;;;24.00;84.20;;;;;;5097362;28;20542;-47
2021/08/07 08:10:20;;;;;;;3.53;2.20;;;24.10;84.30;;;;;;5097427;28;20411;-46
2021/08/07 08:12:46;;;;;;;2.47;1.43;;;24.30;85.00;;;;;;5097922;28;20180;-46
2021/08/07 08:15:13;;;;;;;1.50;1.27;;;24.20;84.40;;;;;;5097256;28;20860;-44
2021/08/07 08:17:39;;;;;;;3.70;1.90;;;24.00;82.80;;;;;;5098671;28;20173;-45
2021/08/07 08:20:06;;;;;;;2.10;1.70;;;23.80;81.50;;;;;;5098068;28;20421;-45
2021/08/07 08:22:33;;;;;;;3.47;1.60;;;23.70;81.90;;;;;;5097344;28;20819;-45
2021/08/07 08:24:59;;;;;;;2.27;1.70;;;23.40;82.90;;;;;;5079645;28;20477;-45
2021/08/07 08:27:24;;;;;;;2.43;1.40;;;23.30;82.80;;;;;;5097402;28;20709;-45
2021/08/07 08:29:50;;;;;;;2.00;1.70;;;23.20;83.60;;;;;;5097310;28;20169;-45
2021/08/07 08:32:16;;;;;;;3.20;1.83;;;23.30;83.70;;;;;;5096203;28;20265;-44
2021/08/07 08:34:42;;;;;;;3.33;1.77;;;23.40;82.40;;;;;;5096791;28;20472;-45
2021/08/07 08:37:09;;;;;;;3.10;1.70;;;23.40;82.30;;;;;;5096512;28;20419;-45
2021/08/07 08:39:35;;;;;;;2.73;1.73;;;23.50;82.80;;;;;;5096569;28;20668;-46
2021/08/07 08:42:02;;;;;;;2.27;1.60;;;23.40;83.20;;;;;;5096222;28;20474;-45
2021/08/07 08:44:28;;;;;;;2.23;1.40;;;23.40;83.60;;;;;;5097207;28;20540;-45
2021/08/07 08:46:53;;;;;;;2.97;1.73;;;23.20;84.00;;;;;;5079032;28;20819;-45
2021/08/07 08:49:20;;;;;;;2.10;1.90;;;22.90;84.20;;;;;;5096851;28;20476;-46
2021/08/07 08:51:47;;;;;;;2.83;2.30;;;22.70;85.10;;;;;;5095676;28;20235;-46
2021/08/07 08:54:15;;;;;;;2.30;1.57;;;22.60;85.50;;;;;;5078781;28;20425;-44
2021/08/07 08:56:41;;;;;;;3.37;1.83;;;22.30;86.20;;;;;;5096139;28;20493;-46
2021/08/07 08:59:09;;;;;;;4.20;1.90;;;22.30;86.00;;;;;;5096534;28;20419;-45
2021/08/07 09:01:35;;;;;;;3.93;1.60;;;22.20;86.70;;;;;;5078394;28;20239;-46
2021/08/07 09:04:03;;;;;;;2.43;1.63;;;22.00;86.70;;;;;;5079077;28;20426;-46
2021/08/07 09:06:33;;;;;;;3.40;1.70;;;21.80;88.40;;;;;;5097494;28;20423;-46
2021/08/07 09:08:59;;;;;;;2.80;1.40;;;21.70;90.10;;;;;;5096187;28;20406;-45
2021/08/07 09:11:24;;;;;;;3.93;2.13;;;21.60;90.20;;;;;;5095192;28;20429;-45
2021/08/07 09:14:13;;;;;;;3.00;1.93;;;21.50;89.50;;;;;;5095956;28;20535;-46
2021/08/07 09:17:02;;;;;;;2.93;2.00;;;21.60;90.20;;;;;;5108751;28;20295;-45
2021/08/07 09:19:40;;;;;;;6.63;2.50;;;21.60;90.20;;;;;;5110606;28;20419;-45
2021/08/07 09:22:19;;;;;;;1.90;1.50;;;21.90;89.80;;;;;;5096113;28;20639;-46
2021/08/07 09:25:08;;;;;;;3.53;2.00;;;21.90;90.20;;;;;;5096922;28;20469;-46
2021/08/07 09:27:41;;;;;;;4.47;1.93;;;21.90;87.90;;;;;;5097146;28;20422;-45
2021/08/07 09:30:19;;;;;;;2.03;1.83;;;21.90;88.60;;;;;;5097400;28;20487;-45
2021/08/07 09:32:55;;;;;;;4.13;2.07;;;21.90;88.80;;;;;;5097027;28;20897;-53
2021/08/07 09:35:27;;;;;;;2.47;1.77;;;21.90;88.80;;;;;;5096407;28;20434;-45
2021/08/07 09:38:14;;;;;;;2.73;1.60;;;21.70;89.70;;;;;;5097242;28;20704;-45
2021/08/07 09:40:47;;;;;;;3.70;1.80;;;21.70;89.80;;;;;;5096550;28;20484;-45
2021/08/07 09:43:15;;;;;;;2.90;1.80;;;21.70;89.60;;;;;;5095183;28;20434;-45
2021/08/07 09:45:41;;;;;;;3.80;2.57;;;21.50;88.90;;;;;;5095088;28;20424;-45
2021/08/07 09:48:10;;;;;;;2.73;1.70;;;21.30;90.00;;;;;;5094841;28;20516;-45
2021/08/07 09:50:37;;;;;;;1.70;1.50;;;21.10;89.90;;;;;;5095262;28;20429;-45
2021/08/07 09:53:04;;;;;;;2.67;2.03;;;20.90;90.30;;;;;;5093895;28;20529;-47
2021/08/07 09:55:30;;;;;;;2.90;1.90;;;20.60;90.50;;;;;;5077123;28;20509;-45
2021/08/07 09:58:07;;;;;;;3.47;2.63;;;20.30;91.70;;;;;;5095718;28;20433;-45
2021/08/07 10:00:44;;;;;;;2.30;1.57;;;20.20;92.30;;;;;;5095405;28;20462;-45
2021/08/07 10:03:17;;;;;;;2.60;2.23;;;20.10;93.30;;;;;;5096518;28;20418;-45
2021/08/07 10:05:43;;;;;;;2.70;2.37;;;19.90;93.70;;;;;;5079148;28;20441;-46
2021/08/07 10:08:11;;;;;;;3.20;2.20;;;19.80;94.50;;;;;;5096404;28;20426;-45
2021/08/07 10:10:36;;;;;;;4.27;2.30;;;19.70;94.90;;;;;;5095267;28;20696;-45
2021/08/07 10:13:02;;;;;;;3.43;2.43;;;19.70;95.50;;;;;;5095374;28;20422;-45
2021/08/07 10:15:28;;;;;;;2.10;1.60;;;19.70;96.80;;;;;;5096452;28;20254;-45
2021/08/07 10:17:59;;;;;;;2.43;1.83;;;19.60;96.50;;;;;;5078159;28;20187;-45
2021/08/07 10:20:24;;;;;;;3.40;2.70;;;19.50;97.00;;;;;;5096640;28;20226;-46
2021/08/07 10:22:51;;;;;;;6.57;2.30;;;19.60;97.10;;;;;;5099144;28;20462;-46
2021/08/07 10:25:17;;;;;;;3.00;2.57;;;19.60;97.40;;;;;;5100279;28;20220;-45
2021/08/07 10:27:43;;;;;;;2.50;2.20;;;19.60;97.50;;;;;;5101800;28;20448;-46
2021/08/07 10:30:13;;;;;;;2.97;2.50;;;19.60;98.00;;;;;;5092170;28;20430;-45
2021/08/07 10:32:50;;;;;;;4.80;3.23;;;19.60;98.40;;;;;;5081614;28;20567;-45
2021/08/07 10:35:16;;;;;;;4.20;2.80;;;19.50;98.40;;;;;;5097498;28;20529;-46
2021/08/07 10:37:42;;;;;;;4.40;2.47;;;19.40;98.80;;;;;;5097452;28;20415;-46
2021/08/07 10:40:10;;;;;;;4.17;2.87;;;19.40;99.40;;;;;;5096949;28;20998;-46
2021/08/07 10:42:36;;;;;;;3.50;3.13;;;19.40;99.60;;;;;;5079029;28;20717;-46
2021/08/07 10:45:07;;;;;;;7.63;3.40;;;19.40;99.90;;;;;;5079662;28;20720;-47
2021/08/07 10:47:38;;;;;;;4.43;2.90;;;19.40;99.90;;;;;;5097445;28;20414;-47
2021/08/07 10:50:25;;;;;;;5.30;3.07;;;19.20;99.90;;;;;;5100290;28;20411;-47
2021/08/07 10:52:59;;;;;;;4.47;3.77;;;18.80;99.90;;;;;;5100167;28;20422;-47
2021/08/07 10:55:50;;;;;;;5.13;3.60;;;18.60;99.90;;;;;;5098584;28;20491;-47
2021/08/07 10:58:46;;;;;;;5.17;3.80;;;18.60;99.90;;;;;;5106193;28;20464;-47
2021/08/07 11:01:25;;;;;;;5.43;3.43;;;18.70;99.90;;;;;;5116815;28;20464;-47
2021/08/07 11:04:03;;;;;;;5.23;3.30;;;18.60;99.90;;;;;;5117641;28;20398;-47
2021/08/07 11:06:38;;;;;;;6.57;4.60;;;18.30;99.90;;;;;;5117253;28;20885;-47
2021/08/07 11:09:22;;;;;;;6.40;3.50;;;18.30;99.90;;;;;;5100298;28;20410;-47
2021/08/07 11:11:50;;;;;;;4.07;3.67;;;18.30;99.90;;;;;;5118607;28;20421;-47
2021/08/07 11:14:42;;;;;;;4.13;3.70;;;18.30;99.90;;;;;;5119899;28;20405;-46
2021/08/07 11:17:10;;;;;;;5.67;4.23;;;18.40;99.90;;;;;;5075281;28;20516;-47
2021/08/07 11:20:00;;;;;;;5.13;4.63;;;18.30;99.90;;;;;;5120386;28;20807;-47
2021/08/07 11:22:32;;;;;;;4.47;3.33;;;18.50;99.90;;;;;;5118460;28;20504;-46
2021/08/07 11:25:17;;;;;;;3.67;3.10;;;18.30;99.90;;;;;;5118351;28;20453;-46
2021/08/07 11:28:01;;;;;;;4.53;3.17;;;18.20;99.90;;;;;;5101471;28;20444;-46
2021/08/07 11:30:27;;;;;;;5.67;3.63;;;18.20;99.90;;;;;;5120011;28;20416;-46
2021/08/07 11:32:56;;;;;;;5.47;3.00;;;17.90;99.90;;;;;;5118408;28;20424;-46
2021/08/07 11:35:51;;;;;;;3.87;3.50;;;18.00;99.90;;;;;;5119783;28;20416;-46
2021/08/07 11:38:22;;;;;;;5.03;4.53;;;18.00;99.90;;;;;;5119109;28;20512;-46
2021/08/07 11:40:58;;;;;;;6.17;3.13;;;18.20;99.90;;;;;;5118392;28;20456;-47
2021/08/07 11:43:24;;;;;;;5.43;4.17;;;18.20;99.90;;;;;;5118561;28;20420;-46
2021/08/07 11:45:59;;;;;;;6.03;3.87;;;18.10;99.90;;;;;;5118286;28;20784;-46
2021/08/07 11:48:33;;;;;;;5.10;4.20;;;18.20;99.90;;;;;;5118570;28;20266;-47
2021/08/07 11:51:03;;;;;;;4.93;3.43;;;18.20;99.90;;;;;;5118470;28;20420;-46
2021/08/07 11:53:30;;;;;;;4.03;3.63;;;18.30;99.90;;;;;;5119420;28;20414;-47
2021/08/07 11:56:07;;;;;;;5.87;3.60;;;18.40;99.90;;;;;;5118929;28;20508;-47
2021/08/07 11:58:40;;;;;;;7.67;3.70;;;18.50;99.90;;;;;;5119627;28;20409;-46
2021/08/07 12:01:05;;;;;;;2.97;2.77;;;18.60;99.90;;;;;;5100878;28;20473;-47
2021/08/07 12:03:52;;;;;;;7.13;4.27;;;18.60;99.90;;;;;;5118782;28;20421;-47
2021/08/07 12:06:19;;;;;;;4.23;3.13;;;18.60;99.90;;;;;;5119076;28;20613;-47
2021/08/07 12:08:45;;;;;;;5.47;4.60;;;18.60;99.90;;;;;;5101221;28;20504;-47
2021/08/07 12:11:13;;;;;;;4.50;3.87;;;18.60;99.90;;;;;;5119129;28;20757;-47
2021/08/07 12:14:00;;;;;;;6.30;3.57;;;18.70;99.90;;;;;;5118506;28;20709;-47
2021/08/07 12:16:37;;;;;;;7.23;3.93;;;18.70;99.90;;;;;;5118314;28;20441;-47
2021/08/07 12:19:05;;;;;;;5.27;4.07;;;18.80;99.90;;;;;;5118330;28;20417;-47
2021/08/07 12:21:34;;;;;;;4.27;3.00;;;18.80;99.90;;;;;;5118501;28;20750;-47
2021/08/07 12:24:05;;;;;;;3.50;3.00;;;18.80;99.90;;;;;;5118693;28;20473;-47
2021/08/07 12:26:39;;;;;;;3.57;3.20;;;18.90;99.90;;;;;;5118375;28;20689;-47
2021/08/07 12:29:06;;;;;;;5.80;4.00;;;18.90;99.90;;;;;;5118605;28;20464;-47
2021/08/07 12:31:49;;;;;;;3.87;3.47;;;19.00;99.90;;;;;;5117499;28;20429;-47
2021/08/07 12:34:20;;;;;;;4.00;3.60;;;19.00;99.90;;;;;;5116779;28;20401;-47
2021/08/07 12:37:06;;;;;;;4.03;3.40;;;18.70;99.90;;;;;;5116951;28;20425;-47
2021/08/07 12:39:52;;;;;;;5.60;3.40;;;18.40;99.90;;;;;;5117634;28;20453;-47
2021/08/07 12:42:23;;;;;;;5.60;3.30;;;18.30;99.90;;;;;;5112996;28;20484;-47
2021/08/07 12:45:13;;;;;;;3.30;3.00;;;18.10;99.90;;;;;;5098917;28;20433;-47
2021/08/07 12:47:38;;;;;;;3.63;2.87;;;17.90;99.90;;;;;;5097321;28;20445;-47
2021/08/07 12:50:18;;;;;;;5.73;3.07;;;18.00;99.90;;;;;;5107951;28;21174;-47
2021/08/07 12:52:50;;;;;;;5.60;3.33;;;17.70;99.90;;;;;;5099388;28;20282;-47
2021/08/07 12:55:18;;;;;;;3.50;3.10;;;17.50;99.90;;;;;;5098462;28;20429;-47